Ana Sayfa
METAR-TAF:

METAR-TAF

Havaalanları :

Riyad, Suudi Arabistan

Enlem: 24-43N, Boylam: 046-44E, yükseklik: 635 m

METAR: eksik

Saat: 11:25 (08:25 UTC)

Tahmin

Rapor saat 23:00 UTC de 9 saat ve 25 dakika önce yapıldı.
Ayın 14'si saat 00 UTC'den ayın 15'si saat 06 UTC'ye kadar geçerli Tahmin
Rüzgar kuzeydan 8 kt ve 18 kt'a kadar ani rüzgarlar
Görüş mesafesi: 8000 m
Geçici
ayın 14'si saat 00 UTC'den ayın 14'si saat 12 UTC'ye kadar
Görüş mesafesi: 4000 m
yaygın toz, Savrulan toz
Olasılık 30% :
Geçici
ayın 14'si saat 00 UTC'den ayın 14'si saat 06 UTC'ye kadar
Görüş mesafesi: 1500 m

TAF: OERY 132300Z 1400/1506 36008G18KT 8000 NSC TEMPO 1400/1412 4000 DU BLDU PROB30 TEMPO 1400/1406 1500

4.000'den fazla havaalanı için hava durumu gözlemleri ve tahminleri (METAR ve TAF raporları).

Kullanılabilir istasyonlar harita üzerinde sarı ve kırmızı noktalarla gösterilir.

İstasyonun adını görmek için fareyi noktanın üzerinde gezdirin.

Sonrasında hava gözlem ve tahminlerini görmek için tıklayın.

Haritayı değiştirmek için: yaklaştırmak için siyah artı işaretli yeşil düğmeye ve uzaklaştırmak için de eksi işaretli düğmeye hızla tıklayın; bitişik haritalar için yeşil okları kullanın.


METAR-TAF: